Financial Plaza, Florida
Current Conditions -  °F | °C
As of 9:53 PM on Friday 19 Dec 2014 (Local Time) from KFLL Reporting Station
Scattered Clouds Scattered Clouds  
Wind Chill: 70°   Ceiling: Unl
Heat Index: 70°   Visibility: 10mi
Dew Point: 61°   Wind: 8mph
Humidity: 73%   Direction: 140°SE
Pressure: 30.07"   Gusts: NA
Location:  26.1179°N, 80.1441°W
Report Text: KFLL 200253Z 14007KT 10SM FEW032 SCT300 21/16 A3007 RMK AO2 SLP182 T02110161 50004
Loading
Personal Weather Stations






























Interactive Weather Map New forecast layout! Learn more

10-Day Weather Forecast

Advertisements
Track Severe Weather on mobile